createdAt,value
2022-10-03T00:00:26.140Z,9.50
2022-10-03T00:03:34.545Z,9.56
2022-10-03T00:06:10.734Z,9.47
2022-10-03T00:09:15.602Z,9.45
2022-10-03T00:12:02.395Z,9.46
2022-10-03T00:14:54.765Z,9.45
2022-10-03T00:18:04.510Z,9.43
2022-10-03T00:20:42.539Z,9.49
2022-10-03T00:23:18.945Z,9.43
2022-10-03T00:25:56.974Z,9.39
2022-10-03T00:28:42.044Z,9.39
2022-10-03T00:31:16.592Z,9.37
2022-10-03T00:33:52.707Z,9.44
2022-10-03T00:36:38.042Z,9.49
2022-10-03T00:39:22.411Z,9.58
2022-10-03T00:42:03.043Z,9.51
2022-10-03T00:45:12.011Z,9.42
2022-10-03T00:47:57.265Z,9.42
2022-10-03T00:50:57.806Z,9.40
2022-10-03T00:53:30.319Z,9.39
2022-10-03T00:56:10.165Z,9.33
2022-10-03T00:58:53.971Z,9.34
2022-10-03T01:01:43.694Z,9.30
2022-10-03T01:04:38.272Z,9.24
2022-10-03T01:07:12.714Z,9.26
2022-10-03T01:09:42.134Z,9.24
2022-10-03T01:12:31.846Z,9.27
2022-10-03T01:15:16.368Z,9.27
2022-10-03T01:17:54.840Z,9.19
2022-10-03T01:20:39.603Z,9.25
2022-10-03T01:23:43.099Z,9.25
2022-10-03T01:26:24.788Z,9.34
2022-10-03T01:29:18.262Z,9.27
2022-10-03T01:31:50.211Z,9.27
2022-10-03T01:34:25.806Z,9.30
2022-10-03T01:37:05.594Z,9.19
2022-10-03T01:39:36.603Z,9.20
2022-10-03T01:42:20.315Z,9.12
2022-10-03T01:45:05.210Z,9.11
2022-10-03T01:47:41.063Z,9.09
2022-10-03T01:50:19.734Z,9.06
2022-10-03T01:52:58.578Z,9.13
2022-10-03T01:55:55.465Z,9.09
2022-10-03T01:58:36.085Z,9.14
2022-10-03T02:01:29.005Z,9.09
2022-10-03T02:04:06.787Z,9.06
2022-10-03T02:06:54.978Z,9.21
2022-10-03T02:10:03.737Z,9.12
2022-10-03T02:13:02.929Z,9.04
2022-10-03T02:15:43.909Z,9.04
2022-10-03T02:18:26.206Z,9.09
2022-10-03T02:21:24.122Z,9.06
2022-10-03T02:24:08.149Z,8.99
2022-10-03T02:26:50.084Z,8.96
2022-10-03T02:29:19.553Z,8.99
2022-10-03T02:32:23.953Z,8.99
2022-10-03T02:35:10.516Z,8.98
2022-10-03T02:38:11.015Z,8.90
2022-10-03T02:41:08.224Z,8.93
2022-10-03T02:43:56.304Z,8.98
2022-10-03T02:46:40.890Z,8.90
2022-10-03T02:49:33.742Z,8.96
2022-10-03T02:52:29.367Z,8.97
2022-10-03T02:55:22.835Z,8.93
2022-10-03T02:57:55.486Z,8.94
2022-10-03T03:00:39.894Z,8.99
2022-10-03T03:03:43.840Z,8.94
2022-10-03T03:06:35.547Z,8.97
2022-10-03T03:09:09.005Z,8.91
2022-10-03T03:11:59.187Z,8.96
2022-10-03T03:14:49.091Z,8.93
2022-10-03T03:17:34.565Z,8.88
2022-10-03T03:20:29.017Z,8.90
2022-10-03T03:23:01.882Z,8.84
2022-10-03T03:25:43.798Z,8.84
2022-10-03T03:28:25.351Z,8.93
2022-10-03T03:31:39.524Z,8.88
2022-10-03T03:34:30.745Z,8.79
2022-10-03T03:37:11.021Z,8.89
2022-10-03T03:39:51.769Z,9.03
2022-10-03T03:42:30.661Z,8.85
2022-10-03T03:45:31.029Z,8.83
2022-10-03T03:48:15.748Z,8.72
2022-10-03T03:51:11.430Z,8.77
2022-10-03T03:53:38.128Z,8.71
2022-10-03T03:56:43.474Z,8.82
2022-10-03T03:59:23.946Z,8.74
2022-10-03T04:02:11.566Z,8.79
2022-10-03T04:05:25.977Z,8.84
2022-10-03T04:08:14.811Z,8.69
2022-10-03T04:10:46.201Z,8.66
2022-10-03T04:13:41.049Z,8.65
2022-10-03T04:16:44.728Z,8.74
2022-10-03T04:19:37.551Z,8.71
2022-10-03T04:22:25.481Z,8.74
2022-10-03T04:25:18.006Z,8.71
2022-10-03T04:28:18.794Z,8.75
2022-10-03T04:30:51.545Z,8.79
2022-10-03T04:33:35.651Z,8.84
2022-10-03T04:36:57.230Z,8.83
2022-10-03T04:39:30.368Z,8.93
2022-10-03T04:42:08.027Z,8.79
2022-10-03T04:44:56.618Z,8.65
2022-10-03T04:47:39.551Z,8.67
2022-10-03T04:50:11.802Z,8.66
2022-10-03T04:52:41.507Z,8.66
2022-10-03T04:55:42.233Z,8.60
2022-10-03T04:58:26.606Z,8.52
2022-10-03T05:01:12.202Z,8.51
2022-10-03T05:04:00.482Z,8.42
2022-10-03T05:06:59.016Z,8.41
2022-10-03T05:09:52.586Z,8.34
2022-10-03T05:12:48.063Z,8.34
2022-10-03T05:15:27.034Z,8.23
2022-10-03T05:18:15.809Z,8.24
2022-10-03T05:21:10.054Z,8.27
2022-10-03T05:24:10.462Z,8.26
2022-10-03T05:26:46.787Z,8.27
2022-10-03T05:29:34.935Z,8.33
2022-10-03T05:32:31.973Z,8.42
2022-10-03T05:35:13.659Z,8.37
2022-10-03T05:37:57.057Z,8.30
2022-10-03T05:40:30.350Z,8.33
2022-10-03T05:43:21.181Z,8.30
2022-10-03T05:45:54.699Z,8.26
2022-10-03T05:48:47.116Z,8.24
2022-10-03T05:51:46.997Z,8.24
2022-10-03T05:54:50.850Z,8.22
2022-10-03T05:57:23.535Z,8.23
2022-10-03T06:00:08.201Z,8.28
2022-10-03T06:03:10.664Z,8.34
2022-10-03T06:06:18.059Z,8.45
2022-10-03T06:08:55.477Z,8.46
2022-10-03T06:11:34.689Z,8.53
2022-10-03T06:14:29.037Z,8.64
2022-10-03T06:17:53.689Z,8.61
2022-10-03T06:20:28.941Z,8.78
2022-10-03T06:23:34.611Z,8.76
2022-10-03T06:26:26.056Z,8.84
2022-10-03T06:29:01.979Z,9.00
2022-10-03T06:31:49.285Z,9.03
2022-10-03T06:34:38.067Z,9.08
2022-10-03T06:37:29.293Z,9.15
2022-10-03T06:40:19.390Z,9.23
2022-10-03T06:43:10.426Z,9.41
2022-10-03T06:45:39.572Z,9.50
2022-10-03T06:49:03.978Z,9.53
2022-10-03T06:52:02.005Z,9.58
2022-10-03T06:54:46.942Z,9.77
2022-10-03T06:57:19.595Z,9.80
2022-10-03T07:00:01.608Z,9.83
2022-10-03T07:02:40.317Z,9.88
2022-10-03T07:05:43.413Z,9.80
2022-10-03T07:08:36.213Z,9.78
2022-10-03T07:11:21.122Z,9.75
2022-10-03T07:13:58.510Z,9.77
2022-10-03T07:17:04.746Z,9.86
2022-10-03T07:19:53.765Z,10.03
2022-10-03T07:22:35.670Z,10.09
2022-10-03T07:25:40.678Z,10.17
2022-10-03T07:28:38.301Z,10.23
2022-10-03T07:31:12.539Z,10.22
2022-10-03T07:34:16.581Z,10.27
2022-10-03T07:37:10.829Z,10.35
2022-10-03T07:39:56.168Z,10.44
2022-10-03T07:42:50.015Z,10.46
2022-10-03T07:45:37.444Z,10.61
2022-10-03T07:48:25.971Z,10.60
2022-10-03T07:51:27.558Z,10.66
2022-10-03T07:53:53.979Z,10.77
2022-10-03T07:56:44.329Z,10.80
2022-10-03T07:59:50.036Z,10.86
2022-10-03T08:02:37.204Z,10.94
2022-10-03T08:05:26.616Z,11.01
2022-10-03T08:08:16.633Z,11.10
2022-10-03T08:11:04.952Z,11.12
2022-10-03T08:14:00.403Z,11.22
2022-10-03T08:17:02.972Z,11.33
2022-10-03T08:19:55.305Z,11.45
2022-10-03T08:23:04.657Z,11.55
2022-10-03T08:26:11.594Z,11.66
2022-10-03T08:28:56.127Z,11.70
2022-10-03T08:31:31.058Z,11.85
2022-10-03T08:34:22.615Z,11.91
2022-10-03T08:36:54.726Z,11.97
2022-10-03T08:39:50.243Z,11.97
2022-10-03T08:42:43.934Z,12.04
2022-10-03T08:45:32.147Z,12.20
2022-10-03T08:48:34.855Z,12.33
2022-10-03T08:51:16.559Z,12.46
2022-10-03T08:54:15.683Z,12.50
2022-10-03T08:56:57.321Z,12.64
2022-10-03T08:59:37.598Z,12.67
2022-10-03T09:02:42.685Z,12.67
2022-10-03T09:05:34.686Z,12.67
2022-10-03T09:08:22.658Z,12.85
2022-10-03T09:11:16.928Z,12.92
2022-10-03T09:14:17.588Z,12.96
2022-10-03T09:17:00.317Z,13.11
2022-10-03T09:20:04.538Z,13.19
2022-10-03T09:22:45.062Z,13.27
2022-10-03T09:25:46.710Z,13.42
2022-10-03T09:28:38.376Z,13.57
2022-10-03T09:31:08.263Z,13.67
2022-10-03T09:34:02.926Z,13.71
2022-10-03T09:36:54.102Z,13.80
2022-10-03T09:39:51.555Z,13.82
2022-10-03T09:42:47.000Z,13.87
2022-10-03T09:45:22.282Z,13.82
2022-10-03T09:48:13.402Z,13.87
2022-10-03T09:50:59.255Z,13.97
2022-10-03T09:53:26.569Z,14.00
2022-10-03T09:56:14.270Z,13.82
2022-10-03T09:59:18.948Z,13.81
2022-10-03T10:02:03.958Z,13.81
2022-10-03T10:04:56.311Z,13.81
2022-10-03T10:07:44.940Z,13.86
2022-10-03T10:10:40.650Z,13.84
2022-10-03T10:14:06.113Z,13.86
2022-10-03T10:16:55.442Z,14.00
2022-10-03T10:19:34.195Z,14.19
2022-10-03T10:22:22.196Z,14.44
2022-10-03T10:25:04.614Z,14.53
2022-10-03T10:28:08.678Z,14.74
2022-10-03T10:31:03.082Z,14.74
2022-10-03T10:33:57.555Z,14.84
2022-10-03T10:36:54.933Z,15.12
2022-10-03T10:39:24.325Z,15.07
2022-10-03T10:42:05.829Z,14.92
2022-10-03T10:44:59.934Z,14.96
2022-10-03T10:48:22.173Z,15.25
2022-10-03T10:50:52.377Z,15.48
2022-10-03T10:54:03.968Z,15.47
2022-10-03T10:56:48.591Z,15.43
2022-10-03T10:59:37.214Z,15.56
2022-10-03T11:02:41.214Z,15.80
2022-10-03T11:05:42.216Z,15.96
2022-10-03T11:08:54.975Z,16.01
2022-10-03T11:11:33.021Z,16.02
2022-10-03T11:14:27.884Z,15.90
2022-10-03T11:17:14.350Z,15.88
2022-10-03T11:19:59.427Z,15.73
2022-10-03T11:23:04.857Z,15.66
2022-10-03T11:25:43.816Z,15.55
2022-10-03T11:28:41.863Z,15.42
2022-10-03T11:31:34.132Z,15.24
2022-10-03T11:34:42.511Z,15.24
2022-10-03T11:37:36.252Z,15.40
2022-10-03T11:40:24.440Z,15.42
2022-10-03T11:43:15.890Z,15.50
2022-10-03T11:46:01.019Z,15.50
2022-10-03T11:48:58.741Z,15.48
2022-10-03T11:51:53.783Z,15.49
2022-10-03T11:54:32.207Z,15.65
2022-10-03T11:57:43.728Z,15.56
2022-10-03T12:00:23.239Z,15.62
2022-10-03T12:03:08.374Z,15.55
2022-10-03T12:06:18.139Z,15.55
2022-10-03T12:09:06.505Z,15.46
2022-10-03T12:11:41.730Z,15.38
2022-10-03T12:14:44.753Z,15.19
2022-10-03T12:17:15.840Z,15.14
2022-10-03T12:19:57.721Z,15.26
2022-10-03T12:22:39.606Z,15.36
2022-10-03T12:25:23.882Z,15.48
2022-10-03T12:27:57.007Z,15.44
2022-10-03T12:30:25.776Z,15.41
2022-10-03T12:33:21.241Z,15.49
2022-10-03T12:35:56.809Z,15.45
2022-10-03T12:38:51.432Z,15.48
2022-10-03T12:41:31.852Z,15.61
2022-10-03T12:44:13.391Z,15.55
2022-10-03T12:47:09.151Z,15.51
2022-10-03T12:49:51.345Z,15.56
2022-10-03T12:52:40.453Z,15.65
2022-10-03T12:55:31.227Z,15.77
2022-10-03T12:58:22.326Z,15.82
2022-10-03T13:01:19.638Z,15.83
2022-10-03T13:04:29.982Z,15.74
2022-10-03T13:07:16.967Z,15.63
2022-10-03T13:10:32.084Z,15.73
2022-10-03T13:13:16.950Z,15.82
2022-10-03T13:15:44.636Z,15.81
2022-10-03T13:18:32.213Z,15.69
2022-10-03T13:21:03.267Z,15.71
2022-10-03T13:23:42.939Z,15.73
2022-10-03T13:26:26.443Z,15.76
2022-10-03T13:29:30.026Z,15.87
2022-10-03T13:31:56.888Z,15.79
2022-10-03T13:34:30.743Z,15.73
2022-10-03T13:37:33.749Z,15.64
2022-10-03T13:40:19.730Z,15.72
2022-10-03T13:42:53.429Z,15.93
2022-10-03T13:45:26.439Z,16.23
2022-10-03T13:48:00.681Z,16.54
2022-10-03T13:50:36.627Z,16.68
2022-10-03T13:53:43.223Z,16.76
2022-10-03T13:56:19.451Z,16.65
2022-10-03T13:59:08.208Z,16.51
2022-10-03T14:02:04.670Z,16.32
2022-10-03T14:04:38.494Z,16.25
2022-10-03T14:07:27.266Z,16.11
2022-10-03T14:10:29.645Z,16.02
2022-10-03T14:13:17.383Z,15.91
2022-10-03T14:16:16.608Z,15.79
2022-10-03T14:18:52.045Z,15.79
2022-10-03T14:21:49.846Z,15.74
2022-10-03T14:24:36.838Z,15.66
2022-10-03T14:27:17.575Z,15.60
2022-10-03T14:30:13.585Z,15.59
2022-10-03T14:32:54.066Z,15.50
2022-10-03T14:35:33.478Z,15.32
2022-10-03T14:38:50.814Z,15.25
2022-10-03T14:41:21.512Z,15.33
2022-10-03T14:43:59.859Z,15.38
2022-10-03T14:47:00.778Z,15.47
2022-10-03T14:49:53.585Z,15.53
2022-10-03T14:52:28.752Z,15.52
2022-10-03T14:54:57.601Z,15.61
2022-10-03T14:57:39.635Z,15.62
2022-10-03T15:00:35.710Z,15.56
2022-10-03T15:03:17.486Z,15.56
2022-10-03T15:06:19.163Z,15.67
2022-10-03T15:08:49.743Z,15.62
2022-10-03T15:11:35.355Z,15.71
2022-10-03T15:14:08.800Z,15.76
2022-10-03T15:16:48.215Z,15.75
2022-10-03T15:19:23.206Z,15.75
2022-10-03T15:21:52.971Z,15.73
2022-10-03T15:24:25.260Z,15.70
2022-10-03T15:27:06.376Z,15.65
2022-10-03T15:29:34.531Z,15.74
2022-10-03T15:32:04.120Z,15.78
2022-10-03T15:34:39.652Z,15.62
2022-10-03T15:37:17.502Z,15.64
2022-10-03T15:39:45.765Z,15.52
2022-10-03T15:42:18.082Z,15.41
2022-10-03T15:44:51.535Z,15.32
2022-10-03T15:47:28.503Z,15.26
2022-10-03T15:50:04.669Z,15.15
2022-10-03T15:52:41.417Z,15.01
2022-10-03T15:55:15.694Z,14.92
2022-10-03T15:57:48.015Z,14.83
2022-10-03T16:00:26.400Z,14.75
2022-10-03T16:03:34.153Z,14.67
2022-10-03T16:06:04.991Z,14.63
2022-10-03T16:08:36.143Z,14.55
2022-10-03T16:11:14.414Z,14.45
2022-10-03T16:13:45.967Z,14.40
2022-10-03T16:16:42.772Z,14.38
2022-10-03T16:19:31.884Z,14.21
2022-10-03T16:22:21.179Z,14.22
2022-10-03T16:25:29.036Z,14.25
2022-10-03T16:28:04.818Z,14.15
2022-10-03T16:30:42.406Z,14.14
2022-10-03T16:33:31.211Z,14.08
2022-10-03T16:36:03.293Z,14.05
2022-10-03T16:38:39.912Z,13.95
2022-10-03T16:41:16.005Z,13.88
2022-10-03T16:43:57.106Z,13.79
2022-10-03T16:46:25.611Z,13.85
2022-10-03T16:49:14.833Z,13.74
2022-10-03T16:51:45.893Z,13.64
2022-10-03T16:54:18.628Z,13.73
2022-10-03T16:57:00.993Z,13.67
2022-10-03T16:59:30.618Z,13.53
2022-10-03T17:02:04.021Z,13.42
2022-10-03T17:04:39.105Z,13.42
2022-10-03T17:07:16.105Z,13.34
2022-10-03T17:09:47.818Z,13.22
2022-10-03T17:12:23.873Z,13.20
2022-10-03T17:14:53.304Z,13.18
2022-10-03T17:18:00.230Z,13.20
2022-10-03T17:20:52.229Z,13.07
2022-10-03T17:23:49.269Z,13.05
2022-10-03T17:26:30.892Z,12.99
2022-10-03T17:29:08.951Z,12.91
2022-10-03T17:32:19.169Z,12.83
2022-10-03T17:34:56.529Z,12.90
2022-10-03T17:37:35.042Z,12.78
2022-10-03T17:40:35.799Z,12.68
2022-10-03T17:43:14.461Z,12.66
2022-10-03T17:46:12.675Z,12.55
2022-10-03T17:49:06.058Z,12.49
2022-10-03T17:51:55.138Z,12.45
2022-10-03T17:54:29.648Z,12.38
2022-10-03T17:57:16.452Z,12.32
2022-10-03T18:00:08.843Z,12.29
2022-10-03T18:02:43.996Z,12.21
2022-10-03T18:05:28.438Z,12.18
2022-10-03T18:07:57.490Z,12.18
2022-10-03T18:10:29.437Z,12.06
2022-10-03T18:12:59.997Z,12.03
2022-10-03T18:15:41.150Z,11.98
2022-10-03T18:18:34.674Z,11.92
2022-10-03T18:21:27.555Z,11.90
2022-10-03T18:23:55.462Z,11.83
2022-10-03T18:26:41.421Z,11.73
2022-10-03T18:29:18.687Z,11.86
2022-10-03T18:31:53.617Z,11.83
2022-10-03T18:34:27.225Z,11.77
2022-10-03T18:36:55.667Z,11.67
2022-10-03T18:39:28.647Z,11.60
2022-10-03T18:41:58.656Z,11.57
2022-10-03T18:44:28.781Z,11.50
2022-10-03T18:46:57.974Z,11.55
2022-10-03T18:49:34.330Z,11.41
2022-10-03T18:52:22.723Z,11.41
2022-10-03T18:55:02.378Z,11.35
2022-10-03T18:57:41.195Z,11.35
2022-10-03T19:00:09.419Z,11.28
2022-10-03T19:02:41.580Z,11.27
2022-10-03T19:05:20.694Z,11.23
2022-10-03T19:08:01.106Z,11.21
2022-10-03T19:10:40.935Z,11.17
2022-10-03T19:13:24.666Z,11.16
2022-10-03T19:16:17.689Z,11.16
2022-10-03T19:19:03.639Z,11.15
2022-10-03T19:21:37.430Z,11.08
2022-10-03T19:24:53.406Z,11.05
2022-10-03T19:27:19.217Z,11.02
2022-10-03T19:29:49.367Z,11.01
2022-10-03T19:32:24.326Z,10.94
2022-10-03T19:34:52.938Z,10.92
2022-10-03T19:37:27.783Z,10.90
2022-10-03T19:39:54.398Z,10.88
2022-10-03T19:42:44.872Z,10.86
2022-10-03T19:45:13.302Z,10.84
2022-10-03T19:47:52.143Z,10.84
2022-10-03T19:50:28.618Z,10.87
2022-10-03T19:52:56.274Z,10.82
2022-10-03T19:55:24.123Z,10.80
2022-10-03T19:57:58.900Z,10.78
2022-10-03T20:00:38.323Z,10.77
2022-10-03T20:03:06.955Z,10.72
2022-10-03T20:05:42.056Z,10.70
2022-10-03T20:08:21.342Z,10.69
2022-10-03T20:10:52.797Z,10.63
2022-10-03T20:13:19.575Z,10.59
2022-10-03T20:15:51.805Z,10.49
2022-10-03T20:18:25.233Z,10.46
2022-10-03T20:20:54.912Z,10.42
2022-10-03T20:23:26.228Z,10.48
2022-10-03T20:26:10.334Z,10.42
2022-10-03T20:29:04.861Z,10.33
2022-10-03T20:31:33.167Z,10.33
2022-10-03T20:34:04.434Z,10.38
2022-10-03T20:36:35.488Z,10.35
2022-10-03T20:39:07.746Z,10.32
2022-10-03T20:41:53.867Z,10.33
2022-10-03T20:44:30.094Z,10.30
2022-10-03T20:47:07.367Z,10.28
2022-10-03T20:49:50.013Z,10.34
2022-10-03T20:52:22.185Z,10.28
2022-10-03T20:54:57.640Z,10.29
2022-10-03T20:57:32.794Z,10.22
2022-10-03T21:00:11.569Z,10.18
2022-10-03T21:02:49.573Z,10.25
2022-10-03T21:05:45.371Z,10.22
2022-10-03T21:08:29.362Z,10.16
2022-10-03T21:10:59.950Z,10.14
2022-10-03T21:13:51.930Z,10.10
2022-10-03T21:16:27.370Z,10.15
2022-10-03T21:18:59.072Z,10.09
2022-10-03T21:21:33.066Z,10.17
2022-10-03T21:24:24.422Z,10.01
2022-10-03T21:27:13.005Z,9.96
2022-10-03T21:29:41.620Z,9.91
2022-10-03T21:32:08.533Z,9.93
2022-10-03T21:34:55.403Z,9.89
2022-10-03T21:37:37.458Z,9.83
2022-10-03T21:40:08.902Z,9.77
2022-10-03T21:43:05.969Z,9.73
2022-10-03T21:45:57.215Z,9.69
2022-10-03T21:48:48.222Z,9.67
2022-10-03T21:51:42.672Z,9.68
2022-10-03T21:54:46.854Z,9.77
2022-10-03T21:57:28.478Z,9.73
2022-10-03T22:00:13.664Z,9.66
2022-10-03T22:02:47.852Z,9.65
2022-10-03T22:05:47.027Z,9.64
2022-10-03T22:08:14.698Z,9.62
2022-10-03T22:10:55.967Z,9.60
2022-10-03T22:13:31.536Z,9.71
2022-10-03T22:16:14.228Z,9.67
2022-10-03T22:18:59.225Z,9.67
2022-10-03T22:21:32.075Z,9.66
2022-10-03T22:24:22.261Z,9.65
2022-10-03T22:26:57.527Z,9.72
2022-10-03T22:29:42.798Z,9.73
2022-10-03T22:32:27.353Z,9.75
2022-10-03T22:35:12.408Z,9.74
2022-10-03T22:37:39.615Z,9.74
2022-10-03T22:40:06.930Z,9.73
2022-10-03T22:42:42.436Z,9.76
2022-10-03T22:45:35.944Z,9.80
2022-10-03T22:48:10.656Z,9.85
2022-10-03T22:50:41.654Z,9.74
2022-10-03T22:53:13.929Z,9.74
2022-10-03T22:55:44.171Z,9.68
2022-10-03T22:58:12.646Z,9.68
2022-10-03T23:00:42.650Z,9.72
2022-10-03T23:03:14.841Z,9.66
2022-10-03T23:05:53.573Z,9.65
2022-10-03T23:08:35.275Z,9.62
2022-10-03T23:11:09.498Z,9.64
2022-10-03T23:13:44.011Z,9.60
2022-10-03T23:16:17.765Z,9.57
2022-10-03T23:18:59.440Z,9.58
2022-10-03T23:21:27.316Z,9.56
2022-10-03T23:24:22.659Z,9.52
2022-10-03T23:27:03.629Z,9.51
2022-10-03T23:29:30.179Z,9.53
2022-10-03T23:32:04.368Z,9.49
2022-10-03T23:34:34.516Z,9.46
2022-10-03T23:37:13.391Z,9.43
2022-10-03T23:39:42.413Z,9.39
2022-10-03T23:42:09.987Z,9.37
2022-10-03T23:44:49.627Z,9.33
2022-10-03T23:47:19.703Z,9.33
2022-10-03T23:49:48.419Z,9.34
2022-10-03T23:52:26.674Z,9.28
2022-10-03T23:54:58.347Z,9.30
2022-10-03T23:57:34.303Z,9.24
